Latest Weather Observations for Kadina

IDS60801

Issued at 9:31 am CST Monday 25 July 2016 (issued every 30 minutes, with the page automatically refreshed every 10 minutes)

About weather observations | Map of weather stations | Latest weather observations for SA | Other Formats
Station Details ID: 022050 Name: KADINA AWS Lat: -33.97 Lon: 137.66 Height: 41.14 m
Data from the previous 72 hours. | See also: Recent months at Kadina
Date/Time
CST
Temp
°C
App
Temp
°C
Dew
Point
°C
Rel
Hum
%
Delta-T
°C
Wind Press
QNH
hPa
Press
MSL
hPa
Rain since
9am
mm
Dir  Spd
km/h
Gust
km/h
Spd
kts
Gust
kts
25/09:30am 11.0 4.4 8.4 84 1.3 NW 33 43 18 23 1017.5 - 0.0
25/09:00am 10.7 4.0 8.1 84 1.3 NW 33 43 18 23 1017.3 1017.3 1.8
25/08:30am 10.0 4.2 7.9 87 1.0 NW 28 33 15 18 1017.3 - 1.8
25/08:00am 9.3 3.4 7.7 90 0.8 NW 28 33 15 18 1017.2 - 1.8
25/07:30am 8.8 3.6 7.3 90 0.7 NW 24 33 13 18 1016.9 - 1.8
25/07:00am 8.3 4.0 6.9 91 0.7 NW 19 24 10 13 1016.8 - 1.8
25/06:30am 7.9 3.9 6.5 91 0.6 NW 17 20 9 11 1017.1 - 1.8
25/06:00am 8.6 4.2 7.2 91 0.7 NW 20 26 11 14 1017.2 1017.2 1.8
25/05:30am 8.2 3.8 6.5 89 0.8 WNW 19 24 10 13 1016.9 - 1.8
25/05:00am 8.5 3.9 6.6 88 0.9 WNW 20 24 11 13 1016.7 - 1.8
25/04:30am 8.7 4.3 7.2 90 0.7 WNW 20 24 11 13 1016.5 - 1.8
25/04:00am 8.8 4.3 6.9 88 0.9 W 20 24 11 13 1016.6 - 1.8
25/03:30am 9.1 4.7 7.4 89 0.8 W 20 24 11 13 1016.8 - 1.8
25/03:00am 9.3 4.7 6.6 83 1.3 W 20 24 11 13 1016.6 1016.6 1.8
25/02:30am 9.7 4.8 7.1 84 1.2 W 22 32 12 17 1016.8 - 1.8
25/02:00am 9.5 4.7 7.3 86 1.0 W 22 30 12 16 1017.0 - 1.8
25/01:30am 9.7 4.8 7.1 84 1.2 W 22 28 12 15 1017.1 - 1.8
25/01:00am 9.7 4.4 7.0 83 1.3 W 24 32 13 17 1017.1 - 1.8
25/12:30am 10.3 3.5 7.0 80 1.6 W 32 43 17 23 1016.9 - 1.8
25/12:00am 10.1 4.1 7.2 82 1.4 W 28 39 15 21 1016.9 1016.9 1.8
 
Date/Time
CST
Temp
°C
App
Temp
°C
Dew
Point
°C
Rel
Hum
%
Delta-T
°C
Wind Press
QNH
hPa
Press
MSL
hPa
Rain since
9am
mm
Dir  Spd
km/h
Gust
km/h
Spd
kts
Gust
kts
24/11:30pm 10.3 3.0 7.0 80 1.6 W 35 48 19 26 1016.7 - 1.8
24/11:00pm 10.5 2.7 6.6 77 1.8 W 37 50 20 27 1016.4 - 1.8
24/10:30pm 10.2 3.4 6.9 80 1.6 W 32 39 17 21 1016.0 - 1.8
24/10:00pm 10.0 3.6 7.1 82 1.4 W 30 39 16 21 1015.8 - 1.8
24/09:30pm 10.4 2.7 7.1 80 1.6 W 37 50 20 27 1015.6 - 1.8
24/09:00pm 10.5 2.8 7.2 80 1.6 W 37 48 20 26 1015.1 1015.1 1.8
24/08:30pm 9.6 2.0 7.5 87 1.0 W 37 54 20 29 1015.1 - 1.8
24/08:16pm 10.4 1.5 6.7 78 1.7 W 43 61 23 33 1015.0 - 1.6
24/08:00pm 11.3 2.7 6.4 72 2.3 W 41 56 22 30 1014.5 - 1.6
24/07:47pm 10.9 2.8 6.8 76 1.9 W 39 57 21 31 1014.5 - 1.6
24/07:30pm 11.1 3.0 6.8 75 2.0 W 39 52 21 28 1014.3 - 1.6
24/07:00pm 11.1 3.0 7.0 76 2.0 W 39 48 21 26 1013.8 - 1.6
24/06:30pm 11.1 3.0 7.0 76 2.0 W 39 52 21 28 1013.4 - 1.6
24/06:00pm 11.0 2.4 6.6 74 2.1 W 41 50 22 27 1013.1 1013.0 1.6
24/05:30pm 11.4 2.2 6.5 72 2.3 W 44 65 24 35 1012.8 - 1.6
24/05:26pm 11.6 2.8 7.1 74 2.2 W 43 65 23 35 1012.7 - 1.6
24/05:00pm 11.8 3.2 6.7 71 2.4 W 41 52 22 28 1012.3 - 1.6
24/04:33pm 12.1 3.0 5.9 66 2.9 W 43 61 23 33 1012.1 - 1.6
24/04:30pm 12.0 3.0 6.3 68 2.7 W 43 56 23 30 1012.1 - 1.6
24/04:00pm 12.0 3.8 6.5 69 2.6 W 39 50 21 27 1011.9 - 1.6
24/03:31pm 11.9 3.8 6.8 71 2.4 W 39 59 21 32 1011.6 - 1.6
24/03:30pm 12.2 3.8 7.5 73 2.3 W 41 54 22 29 1011.5 - 1.6
24/03:00pm 11.6 2.8 7.9 78 1.8 W 44 69 24 37 1011.3 1011.2 1.6
24/02:55pm 12.3 3.5 7.2 71 2.5 W 43 69 23 37 1011.2 - 1.6
24/02:30pm 12.5 3.0 6.5 67 2.9 WNW 46 57 25 31 1011.1 - 1.6
24/02:11pm 12.9 3.3 6.3 64 3.1 W 46 65 25 35 1010.9 - 1.6
24/02:00pm 12.6 3.0 6.2 65 3.0 W 46 61 25 33 1011.0 - 1.6
24/01:30pm 12.6 2.9 5.8 63 3.2 W 46 56 25 30 1010.7 - 1.6
24/01:07pm 12.5 2.3 5.2 61 3.4 W 48 67 26 36 1010.7 - 1.6
24/01:00pm 12.5 4.0 6.8 68 2.7 W 41 54 22 29 1010.7 - 1.6
24/12:41pm 11.7 4.6 8.2 79 1.7 W 35 54 19 29 1010.9 - 1.6
24/12:30pm 11.6 3.7 7.9 78 1.8 W 39 54 21 29 1011.0 - 1.4
24/12:00pm 12.0 3.4 8.1 77 1.9 WNW 43 54 23 29 1011.2 1011.1 1.4
24/11:30am 11.1 4.2 8.7 85 1.2 WNW 35 50 19 27 1011.2 - 1.4
24/11:00am 10.8 2.9 7.7 81 1.5 WNW 39 50 21 27 1011.3 - 1.4
24/10:30am 9.8 1.8 7.6 86 1.1 NW 39 52 21 28 1011.1 - 1.4
24/10:00am 9.5 1.1 7.3 86 1.0 WNW 41 59 22 32 1010.9 - 1.4
24/09:30am 9.0 -1.1 7.5 90 0.7 WNW 50 65 27 35 1010.7 - 1.0
24/09:14am 9.4 -0.6 6.1 80 1.5 WNW 48 67 26 36 1010.5 - 0.2
24/09:00am 9.7 -1.5 6.1 78 1.7 NW 54 69 29 37 1010.2 1010.1 0.4
24/08:34am 10.9 1.4 5.0 67 2.7 NNW 44 63 24 34 1009.7 - 0.2
24/08:30am 10.9 1.0 5.0 67 2.7 NNW 46 63 25 34 1009.7 - 0.2
24/08:22am 11.0 1.5 4.7 65 2.9 NNW 44 63 24 34 1009.7 - 0.2
24/08:00am 10.8 1.3 5.1 68 2.6 NNW 44 56 24 30 1009.8 - 0.2
24/07:30am 10.9 2.0 5.2 68 2.6 NNW 41 57 22 31 1010.2 - 0.2
24/07:00am 10.6 2.6 5.8 72 2.2 NNW 37 52 20 28 1010.2 - 0.2
24/06:30am 10.5 3.0 6.5 76 1.9 NNW 35 44 19 24 1010.4 - 0.2
24/06:00am 10.5 3.5 6.8 78 1.8 NW 33 43 18 23 1010.4 1010.3 0.2
24/05:30am 10.6 3.6 6.7 77 1.8 NW 33 43 18 23 1010.5 - 0.2
24/05:00am 10.8 4.4 7.1 78 1.8 NNW 30 48 16 26 1010.7 - 0.2
24/04:58am 10.8 4.3 6.7 76 1.9 NNW 30 48 16 26 1010.7 - 0.2
24/04:30am 10.4 3.4 6.2 75 2.0 NNW 32 43 17 23 1011.1 - 0.2
24/04:00am 9.8 5.2 8.1 89 0.8 NNW 22 28 12 15 1011.6 - 0.2
24/03:30am 8.5 5.1 7.6 94 0.4 N 15 17 8 9 1011.9 - 0.2
24/03:00am 8.8 5.5 7.9 94 0.4 N 15 17 8 9 1011.8 1011.7 0.2
24/02:30am 8.1 4.5 6.6 90 0.7 N 15 17 8 9 1012.0 - 0.2
24/02:00am 7.5 3.4 6.3 92 0.5 N 17 20 9 11 1012.7 - 0.2
24/01:30am 7.0 2.5 5.9 93 0.5 N 19 20 10 11 1013.0 - 0.2
24/01:00am 6.3 2.0 5.4 94 0.4 N 17 19 9 10 1013.6 - 0.2
24/12:30am 6.2 2.6 5.2 93 0.4 N 13 15 7 8 1014.2 - 0.2
24/12:00am 7.7 4.1 6.6 93 0.5 N 15 19 8 10 1014.9 1014.8 0.2
 
Date/Time
CST
Temp
°C
App
Temp
°C
Dew
Point
°C
Rel
Hum
%
Delta-T
°C
Wind Press
QNH
hPa
Press
MSL
hPa
Rain since
9am
mm
Dir  Spd
km/h
Gust
km/h
Spd
kts
Gust
kts
23/11:30pm 8.1 4.2 6.9 92 0.6 N 17 20 9 11 1015.3 - 0.2
23/11:00pm 7.5 3.8 6.1 91 0.6 N 15 17 8 9 1015.5 - 0.2
23/10:30pm 7.8 4.5 6.4 91 0.6 NNE 13 15 7 8 1015.4 - 0.2
23/10:00pm 7.5 4.6 6.6 94 0.4 N 11 13 6 7 1015.8 - 0.2
23/09:30pm 6.6 4.0 5.9 95 0.3 ENE 9 15 5 8 1016.1 - 0.2
23/09:00pm 5.5 3.0 4.5 93 0.4 ESE 7 9 4 5 1015.8 1015.8 0.2
23/08:30pm 6.6 4.9 5.7 94 0.4 ENE 4 6 2 3 1016.0 - 0.2
23/08:00pm 6.0 3.5 5.0 93 0.4 N 7 9 4 5 1016.2 - 0.2
23/07:30pm 6.0 3.1 4.5 90 0.6 N 9 11 5 6 1016.0 - 0.2
23/07:00pm 6.5 3.6 4.7 88 0.8 N 9 11 5 6 1016.1 - 0.2
23/06:30pm 7.5 5.0 5.0 84 1.1 NW 7 11 4 6 1016.0 - 0.2
23/06:00pm 8.1 5.0 5.7 85 1.1 NNW 11 13 6 7 1016.0 1016.0 0.2
23/05:30pm 9.5 7.1 6.8 83 1.3 NW 9 11 5 6 1015.7 - 0.2
23/05:00pm 11.6 8.9 7.3 75 2.1 W 11 17 6 9 1015.8 - 0.2
23/04:30pm 12.0 8.8 6.7 70 2.5 SW 13 17 7 9 1015.4 - 0.2
23/04:00pm 12.2 8.5 6.5 68 2.7 WSW 15 20 8 11 1015.5 - 0.2
23/03:30pm 12.2 8.4 6.0 66 2.9 WSW 15 20 8 11 1015.7 - 0.2
23/03:00pm 12.1 8.0 6.2 67 2.8 W 17 20 9 11 1016.0 1016.0 0.2
23/02:30pm 12.1 8.6 7.4 73 2.3 WSW 15 20 8 11 1015.8 - 0.2
23/02:00pm 11.3 7.0 7.0 75 2.1 WSW 19 24 10 13 1015.9 - 0.2
23/01:30pm 11.9 8.3 8.4 79 1.7 WNW 17 22 9 12 1016.0 - 0.0
23/01:00pm 12.1 8.5 6.8 70 2.5 W 15 19 8 10 1015.8 - 0.0
23/12:30pm 12.4 8.8 6.7 68 2.7 W 15 30 8 16 1016.1 - 0.0
23/12:00pm 12.4 9.0 7.5 72 2.4 SSW 15 20 8 11 1016.3 1016.3 0.0
23/11:30am 11.5 7.6 8.5 82 1.5 SSW 19 22 10 12 1016.5 - 0.0
23/11:00am 11.8 8.5 7.9 77 1.9 S 15 22 8 12 1016.6 - 0.0
23/10:30am 11.8 9.2 9.4 85 1.2 SSE 13 15 7 8 1016.4 - 0.0
23/10:00am 10.6 6.6 8.4 86 1.1 S 19 24 10 13 1016.3 - 0.0
23/09:30am 10.7 7.5 8.6 87 1.0 SSW 15 17 8 9 1015.6 - 0.0
23/09:00am 9.4 5.3 7.8 90 0.8 SSW 19 28 10 15 1015.2 1015.2 1.0
23/08:47am 9.1 2.8 7.4 89 0.8 SSW 30 39 16 21 1015.1 - 1.0
23/08:30am 9.0 7.2 8.1 94 0.4 SW 7 7 4 4 1014.8 - 1.0
23/08:00am 9.0 6.5 8.2 95 0.4 SSW 11 15 6 8 1014.4 - 0.8
23/07:30am 8.1 5.4 7.2 94 0.4 SW 11 13 6 7 1013.8 - 0.8
23/07:00am 9.3 6.8 8.4 94 0.4 SSW 11 15 6 8 1013.2 - 0.8
23/06:30am 9.7 6.9 8.6 93 0.5 WSW 13 19 7 10 1012.8 - 0.8
23/06:00am 10.0 5.6 8.8 92 0.6 W 22 32 12 17 1012.2 1012.1 0.8
23/05:30am 10.3 5.3 8.2 87 1.0 W 24 32 13 17 1011.8 - 0.6
23/05:00am 10.2 5.2 8.1 87 1.0 W 24 33 13 18 1011.5 - 0.6
23/04:30am 9.8 4.7 7.6 86 1.1 WNW 24 30 13 16 1011.3 - 0.6
23/04:00am 9.8 5.0 7.4 85 1.1 WNW 22 28 12 15 1011.3 - 0.6
23/03:30am 9.3 4.8 7.1 86 1.0 W 20 28 11 15 1011.1 - 0.6
23/03:00am 9.4 5.0 7.2 86 1.0 W 20 26 11 14 1011.2 1011.1 0.6
23/02:30am 9.6 4.7 6.9 83 1.3 W 22 28 12 15 1011.2 - 0.6
23/02:00am 9.8 4.6 7.4 85 1.1 W 24 28 13 15 1011.0 - 0.6
23/01:30am 10.0 4.5 7.6 85 1.1 W 26 32 14 17 1011.0 - 0.6
23/01:00am 10.0 4.4 7.3 83 1.3 W 26 33 14 18 1010.8 - 0.6
23/12:30am 10.2 3.6 7.6 84 1.2 W 32 37 17 20 1010.4 - 0.6
23/12:00am 10.4 3.2 7.6 83 1.3 W 35 44 19 24 1010.2 1010.1 0.6
 
Date/Time
CST
Temp
°C
App
Temp
°C
Dew
Point
°C
Rel
Hum
%
Delta-T
°C
Wind Press
QNH
hPa
Press
MSL
hPa
Rain since
9am
mm
Dir  Spd
km/h
Gust
km/h
Spd
kts
Gust
kts
22/11:30pm 10.4 2.8 7.5 82 1.4 W 37 50 20 27 1010.0 - 0.6
22/11:00pm 10.1 2.1 7.5 84 1.2 W 39 46 21 25 1009.6 - 0.6
22/10:30pm 10.2 1.7 6.9 80 1.6 W 41 57 22 31 1009.3 - 0.6
22/10:00pm 9.4 0.7 7.5 88 0.9 WSW 43 83 23 45 1009.0 - 0.6
22/09:59pm 9.5 0.6 7.6 88 0.9 WSW 44 83 24 45 1009.0 - 0.6
22/09:53pm 9.7 -1.3 7.0 83 1.3 WSW 54 83 29 45 1008.8 - 0.4
22/09:49pm 11.3 2.2 6.6 73 2.2 W 44 74 24 40 1008.5 - 0.4
22/09:30pm 10.7 2.7 7.4 80 1.6 W 39 56 21 30 1008.5 - 0.4
22/09:15pm 11.0 2.0 6.6 74 2.1 W 43 70 23 38 1008.3 - 0.4
22/09:00pm 11.2 2.7 7.1 76 2.0 W 41 52 22 28 1008.1 1008.0 0.4
22/08:30pm 11.2 2.7 7.1 76 2.0 W 41 57 22 31 1007.8 - 0.4
22/08:00pm 11.1 2.1 7.2 77 1.9 WNW 44 56 24 30 1007.3 - 0.4
22/07:50pm 11.2 3.5 7.3 77 1.9 WNW 37 56 20 30 1007.1 - 0.4
22/07:30pm 11.2 2.2 7.1 76 2.0 W 44 59 24 32 1006.8 - 0.4
22/07:00pm 11.0 2.6 7.5 79 1.7 W 41 50 22 27 1006.4 - 0.4
22/06:30pm 10.4 1.4 7.1 80 1.6 W 44 61 24 33 1006.0 - 0.4
22/06:10pm 9.6 -0.6 6.9 83 1.3 W 50 87 27 47 1005.9 - 0.2
22/06:08pm 9.5 -1.2 6.4 81 1.4 W 52 93 28 50 1006.1 - 0.2
22/06:02pm 8.9 -6.2 5.5 79 1.5 W 74 93 40 50 1006.1 - 0.2
22/06:01pm 9.5 -6.3 5.9 78 1.7 W 78 93 42 50 1006.0 - 0.0
22/06:00pm 9.9 -1.4 5.3 73 2.1 W 54 93 29 50 1005.8 1005.7 0.0
22/05:59pm 11.1 0.8 6.3 72 2.3 W 50 91 27 49 1005.8 - 0.0
22/05:30pm 11.6 4.4 9.2 85 1.2 W 37 48 20 26 1004.8 - 0.0
22/05:00pm 11.8 1.9 8.1 78 1.8 W 50 74 27 40 1004.4 - 0.0
22/04:55pm 12.0 2.6 8.7 80 1.6 W 48 69 26 37 1004.4 - 0.0
22/04:44pm 11.6 3.1 9.3 86 1.2 W 44 83 24 45 1004.4 - 0.0
22/04:32pm 12.4 -0.2 8.7 78 1.8 W 65 83 35 45 1004.2 - 0.0
22/04:30pm 12.3 -0.8 8.4 77 1.9 W 67 83 36 45 1004.2 - 0.0
22/04:25pm 12.5 -1.4 7.6 72 2.4 W 70 83 38 45 1004.0 - 0.0
22/04:11pm 13.5 4.1 8.6 72 2.5 W 48 69 26 37 1003.7 - 0.0
22/04:00pm 13.0 3.2 8.5 74 2.2 WNW 50 61 27 33 1003.6 - 0.0
22/03:30pm 12.1 2.1 9.3 83 1.4 W 52 70 28 38 1003.4 - 0.0
22/03:00pm 15.8 4.7 7.8 59 4.0 W 56 76 30 41 1002.7 1002.6 0.0
22/02:56pm 15.7 4.5 7.7 59 4.0 W 56 76 30 41 1002.7 - 0.0
22/02:52pm 15.5 4.5 8.3 62 3.6 W 56 63 30 34 1002.6 - 0.0
22/02:44pm 15.5 9.2 9.8 69 3.0 WNW 33 52 18 28 1002.7 - 0.0
22/02:30pm 14.8 9.0 10.8 77 2.1 WNW 32 41 17 22 1002.5 - 0.0
22/02:00pm 15.3 7.9 11.1 76 2.2 W 41 54 22 29 1002.4 - 0.0
22/01:30pm 13.9 7.6 11.2 84 1.4 W 35 44 19 24 1002.7 - 0.0
22/01:12pm 14.4 7.2 9.2 71 2.7 W 37 46 20 25 1002.7 - 0.0
22/01:00pm 16.0 9.6 10.7 71 2.8 NW 35 46 19 25 1002.6 - 0.0
22/12:30pm 15.8 9.4 10.8 72 2.7 NNW 35 48 19 26 1003.0 - 0.0
22/12:00pm 15.4 9.4 10.8 74 2.5 NNW 33 46 18 25 1003.5 1003.4 0.0
22/11:30am 15.1 10.1 10.9 76 2.2 NNW 28 37 15 20 1004.0 - 0.0
22/11:00am 15.1 9.4 11.1 77 2.1 NNW 32 39 17 21 1004.5 - 0.0
22/10:30am 14.8 8.9 10.6 76 2.2 NNW 32 37 17 20 1004.6 - 0.0
22/10:00am 14.6 9.5 10.6 77 2.1 NNW 28 35 15 19 1004.7 - 0.0

Other Formats:

Comma delimited format used in spreadsheet applications
http://www.bom.gov.au/fwo/IDS60801/IDS60801.94685.axf

JavaScript Object Notation format (JSON) in row-major order
http://www.bom.gov.au/fwo/IDS60801/IDS60801.94685.json